createdAt,value
2019-05-26T14:31:24.406Z,50.59
2019-05-26T14:32:25.510Z,50.69
2019-05-26T14:33:26.098Z,51.29
2019-05-26T14:34:26.822Z,51.89
2019-05-26T14:35:27.539Z,52.33
2019-05-26T14:36:27.584Z,51.66
2019-05-26T14:37:27.889Z,51.33
2019-05-26T14:38:42.213Z,51.87
2019-05-26T14:39:27.617Z,52.13
2019-05-26T14:40:29.215Z,52.40
2019-05-26T14:41:29.515Z,52.76
2019-05-26T14:42:29.838Z,52.84
2019-05-26T14:43:30.252Z,52.63
2019-05-26T14:44:30.634Z,52.78
2019-05-26T14:45:30.986Z,52.92
2019-05-26T14:46:31.466Z,53.20
2019-05-26T14:47:31.906Z,53.73
2019-05-26T14:48:32.295Z,54.35
2019-05-26T14:49:32.728Z,54.40
2019-05-26T14:50:33.103Z,54.53
2019-05-26T14:51:33.587Z,54.60
2019-05-26T14:52:34.164Z,55.11
2019-05-26T14:53:33.533Z,55.24
2019-05-26T14:54:35.306Z,55.30
2019-05-26T14:55:35.572Z,55.59
2019-05-26T14:56:35.895Z,55.60
2019-05-26T14:57:36.288Z,55.45
2019-05-26T14:58:36.711Z,55.44
2019-05-26T14:59:37.246Z,55.76
2019-05-26T15:00:37.601Z,55.77
2019-05-26T15:01:38.018Z,56.26
2019-05-26T15:02:38.599Z,56.43
2019-05-26T15:03:38.982Z,56.48
2019-05-26T15:04:39.228Z,56.65
2019-05-26T15:05:39.676Z,56.36
2019-05-26T15:06:39.971Z,56.09
2019-05-26T15:07:40.398Z,55.89
2019-05-26T15:08:40.723Z,56.40
2019-05-26T15:09:41.052Z,56.22
2019-05-26T15:10:41.312Z,56.57
2019-05-26T15:11:41.662Z,56.46
2019-05-26T15:12:42.029Z,56.41
2019-05-26T15:13:42.392Z,56.58
2019-05-26T15:14:42.846Z,56.51
2019-05-26T15:15:43.167Z,56.05
2019-05-26T15:16:43.476Z,56.54
2019-05-26T15:16:52.009Z,56.58
2019-05-26T15:17:53.547Z,56.77
2019-05-26T15:18:54.113Z,57.04
2019-05-26T15:19:54.241Z,56.33
2019-05-26T15:20:56.160Z,56.78
2019-05-26T15:21:54.213Z,56.43
2019-05-26T15:22:55.593Z,56.93
2019-05-26T15:23:56.256Z,57.03
2019-05-26T15:24:56.561Z,57.00
2019-05-26T15:25:57.148Z,57.54
2019-05-26T15:26:56.704Z,57.75
2019-05-26T15:27:57.877Z,57.23
2019-05-26T15:28:58.309Z,57.68
2019-05-26T15:29:58.838Z,57.45
2019-05-26T15:30:59.174Z,57.68
2019-05-26T15:32:02.718Z,57.03
2019-05-26T15:32:59.574Z,57.43
2019-05-26T15:34:00.900Z,57.56
2019-05-26T15:35:01.265Z,57.68
2019-05-26T15:36:01.404Z,57.84
2019-05-26T15:37:01.739Z,57.76
2019-05-26T15:38:02.194Z,57.81
2019-05-26T15:39:01.509Z,57.90
2019-05-26T15:40:02.822Z,57.84
2019-05-26T15:41:03.240Z,58.31
2019-05-26T15:42:03.781Z,57.72
2019-05-26T15:43:04.146Z,58.00
2019-05-26T15:44:04.428Z,57.33
2019-05-26T15:45:05.017Z,58.08
2019-05-26T15:46:05.404Z,57.74
2019-05-26T15:47:05.827Z,57.83
2019-05-26T15:48:06.558Z,57.94
2019-05-26T15:49:06.945Z,58.28
2019-05-26T15:50:07.177Z,58.24
2019-05-26T15:51:07.480Z,58.33
2019-05-26T15:52:07.916Z,58.07
2019-05-26T15:53:08.186Z,57.56
2019-05-26T15:54:08.610Z,57.95
2019-05-26T15:55:09.029Z,58.10
2019-05-26T15:56:09.391Z,57.79
2019-05-26T15:57:09.914Z,57.27
2019-05-26T15:58:10.368Z,56.85
2019-05-26T15:59:11.231Z,56.75
2019-05-26T16:00:11.520Z,56.91
2019-05-26T16:01:12.246Z,57.19
2019-05-26T16:02:11.557Z,57.06
2019-05-26T16:03:12.896Z,57.31
2019-05-26T16:04:13.332Z,56.67
2019-05-26T16:05:12.586Z,56.84
2019-05-26T16:05:21.156Z,57.18
2019-05-26T16:06:22.411Z,57.24
2019-05-26T16:07:22.950Z,57.33
2019-05-26T16:08:23.350Z,57.54
2019-05-26T16:09:23.772Z,57.62
2019-05-26T16:10:24.627Z,57.74
2019-05-26T16:11:24.959Z,57.35
2019-05-26T16:12:25.243Z,57.03
2019-05-26T16:13:24.703Z,57.11
2019-05-26T16:14:26.163Z,57.22
2019-05-26T16:15:26.552Z,56.91
2019-05-26T16:16:40.200Z,56.87
2019-05-26T16:17:26.383Z,56.96
2019-05-26T16:18:27.644Z,56.99
2019-05-26T16:19:28.045Z,57.37
2019-05-26T16:20:28.686Z,57.57
2019-05-26T16:21:29.291Z,58.11
2019-05-26T16:22:30.002Z,58.04
2019-05-26T16:23:30.604Z,58.30
2019-05-26T16:24:30.844Z,58.42
2019-05-26T16:25:31.293Z,58.62
2019-05-26T16:26:31.629Z,58.73
2019-05-26T16:27:32.194Z,58.74
2019-05-26T16:28:32.639Z,58.58
2019-05-26T16:29:31.906Z,59.01
2019-05-26T16:30:33.670Z,58.03
2019-05-26T16:31:34.598Z,58.46
2019-05-26T16:32:34.999Z,58.52
2019-05-26T16:33:35.328Z,58.79
2019-05-26T16:34:35.670Z,59.32
2019-05-26T16:35:36.226Z,59.16
2019-05-26T16:36:35.604Z,59.50
2019-05-26T16:37:37.137Z,59.41
2019-05-26T16:38:36.804Z,59.66
2019-05-26T16:39:38.394Z,59.64
2019-05-26T16:40:37.833Z,59.68
2019-05-26T16:41:39.302Z,59.89
2019-05-26T16:42:40.018Z,59.59
2019-05-26T16:43:40.442Z,59.97
2019-05-26T16:44:40.739Z,59.60
2019-05-26T16:45:55.291Z,59.56
2019-05-26T16:46:53.668Z,60.03
2019-05-26T16:47:41.073Z,59.96
2019-05-26T16:48:42.607Z,60.00
2019-05-26T16:49:43.177Z,60.10
2019-05-26T16:50:43.561Z,60.08
2019-05-26T16:51:43.931Z,60.40
2019-05-26T16:52:44.335Z,60.08
2019-05-26T16:53:43.714Z,60.64
2019-05-26T16:54:45.518Z,60.66
2019-05-26T16:55:45.567Z,60.42
2019-05-26T16:56:46.470Z,60.10
2019-05-26T16:56:55.347Z,60.45
2019-05-26T16:57:57.137Z,60.44
2019-05-26T16:58:57.553Z,60.32
2019-05-26T16:59:58.176Z,59.82
2019-05-26T17:00:58.332Z,60.24
2019-05-26T17:01:59.088Z,59.76
2019-05-26T17:02:58.362Z,59.89
2019-05-26T17:03:58.749Z,59.50
2019-05-26T17:05:00.539Z,59.49
2019-05-26T17:06:07.795Z,59.65
2019-05-26T17:07:00.866Z,60.02
2019-05-26T17:08:02.403Z,59.67
2019-05-26T17:09:02.740Z,60.05
2019-05-26T17:10:03.229Z,60.29
2019-05-26T17:11:02.475Z,60.24
2019-05-26T17:12:03.749Z,59.83
2019-05-26T17:13:04.360Z,59.66
2019-05-26T17:14:04.916Z,60.04
2019-05-26T17:15:05.406Z,60.42
2019-05-26T17:16:05.757Z,60.35
2019-05-26T17:17:14.685Z,60.29
2019-05-26T17:18:05.500Z,60.40
2019-05-26T17:19:06.758Z,60.31
2019-05-26T17:20:07.227Z,60.88
2019-05-26T17:21:07.513Z,60.92
2019-05-26T17:22:07.775Z,60.91
2019-05-26T17:23:08.113Z,60.75
2019-05-26T17:24:08.541Z,60.92
2019-05-26T17:25:07.789Z,61.23
2019-05-26T17:26:09.221Z,61.12
2019-05-26T17:27:09.495Z,61.35
2019-05-26T17:28:09.999Z,61.82
2019-05-26T17:29:10.322Z,61.61
2019-05-26T17:30:10.672Z,61.35
2019-05-26T17:31:11.167Z,61.53
2019-05-26T17:32:11.619Z,61.54
2019-05-26T17:33:11.995Z,61.54
2019-05-26T17:34:12.315Z,61.40
2019-05-26T17:35:12.697Z,61.48
2019-05-26T17:36:13.133Z,61.26
2019-05-26T17:37:13.480Z,61.55
2019-05-26T17:38:14.024Z,61.45
2019-05-26T17:39:14.434Z,61.51
2019-05-26T17:40:14.854Z,61.43
2019-05-26T17:41:15.383Z,61.31
2019-05-26T17:42:15.703Z,61.53
2019-05-26T17:43:16.586Z,61.28
2019-05-26T17:44:16.885Z,61.54
2019-05-26T17:44:25.491Z,61.74
2019-05-26T17:45:26.776Z,61.77
2019-05-26T17:46:27.611Z,61.78
2019-05-26T17:47:30.805Z,61.95
2019-05-26T17:48:27.616Z,61.51
2019-05-26T17:49:28.997Z,61.78
2019-05-26T17:50:29.940Z,61.82
2019-05-26T17:51:30.259Z,61.75
2019-05-26T17:52:30.584Z,62.17
2019-05-26T17:53:31.039Z,61.61
2019-05-26T17:54:31.818Z,62.01
2019-05-26T17:55:32.324Z,62.09
2019-05-26T17:56:32.646Z,61.62
2019-05-26T17:57:33.013Z,62.12
2019-05-26T17:58:33.372Z,62.17
2019-05-26T17:59:33.734Z,62.05
2019-05-26T18:00:34.093Z,62.24
2019-05-26T18:01:34.847Z,62.24
2019-05-26T18:02:35.334Z,62.25
2019-05-26T18:03:36.040Z,62.15
2019-05-26T18:04:36.647Z,62.31
2019-05-26T18:05:37.138Z,62.49
2019-05-26T18:06:37.278Z,62.26
2019-05-26T18:07:37.582Z,62.97
2019-05-26T18:08:38.258Z,63.00
2019-05-26T18:09:44.311Z,63.42
2019-05-26T18:10:38.117Z,63.26
2019-05-26T18:11:39.840Z,63.36
2019-05-26T18:12:40.166Z,63.61
2019-05-26T18:13:40.657Z,63.52
2019-05-26T18:14:40.891Z,63.35
2019-05-26T18:15:41.189Z,62.98
2019-05-26T18:16:41.522Z,63.41
2019-05-26T18:17:47.487Z,63.67
2019-05-26T18:18:41.624Z,63.11
2019-05-26T18:19:43.058Z,63.37
2019-05-26T18:20:43.340Z,63.40
2019-05-26T18:21:44.149Z,62.79
2019-05-26T18:22:44.505Z,63.13
2019-05-26T18:23:43.840Z,63.27
2019-05-26T18:24:54.906Z,63.29
2019-05-26T18:25:44.283Z,63.75
2019-05-26T18:26:45.638Z,63.80
2019-05-26T18:27:46.061Z,63.13
2019-05-26T18:28:46.393Z,63.25
2019-05-26T18:29:46.753Z,62.95
2019-05-26T18:30:45.748Z,62.66
2019-05-26T18:31:47.237Z,62.64
2019-05-26T18:32:46.564Z,62.68
2019-05-26T18:33:47.855Z,62.49
2019-05-26T18:33:56.423Z,62.61
2019-05-26T18:34:58.265Z,62.69
2019-05-26T18:35:58.280Z,62.94
2019-05-26T18:36:58.767Z,62.76
2019-05-26T18:37:57.949Z,62.92
2019-05-26T18:38:59.300Z,62.90
2019-05-26T18:39:59.595Z,62.82
2019-05-26T18:40:59.928Z,62.73
2019-05-26T18:42:00.337Z,63.12
2019-05-26T18:43:00.629Z,63.06
2019-05-26T18:44:01.058Z,63.21
2019-05-26T18:45:01.606Z,62.90
2019-05-26T18:46:02.133Z,63.14
2019-05-26T18:47:02.530Z,63.23
2019-05-26T18:48:03.824Z,62.77
2019-05-26T18:49:02.469Z,63.25
2019-05-26T18:50:02.771Z,62.98
2019-05-26T18:51:04.172Z,62.72
2019-05-26T18:52:04.704Z,62.96
2019-05-26T18:53:05.668Z,62.99
2019-05-26T18:54:04.842Z,63.21
2019-05-26T18:55:06.092Z,63.17
2019-05-26T18:56:06.595Z,62.95
2019-05-26T18:57:06.638Z,63.31
2019-05-26T18:58:07.221Z,62.60
2019-05-26T18:59:07.701Z,62.85
2019-05-26T19:00:08.231Z,62.92
2019-05-26T19:01:08.614Z,63.00
2019-05-26T19:02:09.006Z,62.75
2019-05-26T19:03:09.317Z,62.85
2019-05-26T19:04:09.494Z,63.01
2019-05-26T19:05:09.584Z,62.76
2019-05-26T19:06:10.348Z,62.87
2019-05-26T19:07:11.067Z,62.83
2019-05-26T19:08:11.653Z,62.70
2019-05-26T19:09:11.991Z,62.90
2019-05-26T19:10:11.946Z,62.76
2019-05-26T19:11:13.654Z,63.02
2019-05-26T19:12:14.089Z,63.10
2019-05-26T19:13:14.633Z,63.07
2019-05-26T19:14:15.043Z,63.19
2019-05-26T19:15:15.408Z,62.96
2019-05-26T19:16:15.731Z,63.12
2019-05-26T19:17:16.070Z,63.36
2019-05-26T19:18:20.344Z,63.53
2019-05-26T19:19:15.895Z,63.58
2019-05-26T19:20:17.538Z,63.58
2019-05-26T19:21:16.960Z,63.21
2019-05-26T19:22:18.211Z,63.37
2019-05-26T19:22:29.035Z,62.98
2019-05-26T19:23:30.448Z,62.99
2019-05-26T19:24:30.861Z,63.16
2019-05-26T19:25:31.508Z,62.62
2019-05-26T19:26:32.006Z,62.62
2019-05-26T19:27:32.772Z,62.83
2019-05-26T19:28:33.055Z,62.87
2019-05-26T19:29:33.678Z,62.65
2019-05-26T19:30:33.851Z,62.90
2019-05-26T19:31:34.418Z,62.96
2019-05-26T19:32:34.701Z,63.06
2019-05-26T19:33:35.177Z,62.79
2019-05-26T19:34:35.796Z,62.87
2019-05-26T19:35:36.178Z,62.74
2019-05-26T19:36:36.568Z,62.98
2019-05-26T19:37:37.313Z,63.26
2019-05-26T19:38:37.705Z,63.37
2019-05-26T19:39:38.406Z,63.31
2019-05-26T19:40:38.703Z,63.29
2019-05-26T19:41:39.598Z,63.26
2019-05-26T19:42:38.870Z,63.24
2019-05-26T19:43:40.308Z,63.17
2019-05-26T19:44:40.687Z,63.24
2019-05-26T19:45:41.140Z,63.36
2019-05-26T19:46:41.740Z,63.22
2019-05-26T19:47:42.147Z,63.16
2019-05-26T19:48:42.891Z,63.23
2019-05-26T19:49:43.309Z,63.47
2019-05-26T19:50:44.114Z,63.30
2019-05-26T19:51:44.629Z,63.21
2019-05-26T19:52:45.079Z,63.33
2019-05-26T19:53:45.761Z,63.34
2019-05-26T19:54:46.034Z,63.36
2019-05-26T19:55:46.478Z,63.41
2019-05-26T19:56:47.041Z,63.68
2019-05-26T19:57:47.385Z,64.00
2019-05-26T19:58:47.705Z,64.04
2019-05-26T19:59:48.112Z,64.17
2019-05-26T20:00:48.676Z,64.19
2019-05-26T20:01:49.087Z,64.01
2019-05-26T20:02:48.401Z,64.34
2019-05-26T20:03:49.875Z,64.35
2019-05-26T20:04:50.336Z,64.51
2019-05-26T20:05:50.822Z,64.32
2019-05-26T20:06:51.336Z,64.21
2019-05-26T20:06:59.934Z,64.39
2019-05-26T20:08:01.609Z,64.43
2019-05-26T20:09:02.535Z,64.52
2019-05-26T20:10:02.188Z,64.31
2019-05-26T20:11:02.928Z,64.34
2019-05-26T20:12:04.217Z,64.22
2019-05-26T20:13:04.650Z,64.53
2019-05-26T20:14:05.144Z,64.51
2019-05-26T20:15:06.034Z,64.72
2019-05-26T20:16:06.410Z,65.05
2019-05-26T20:17:06.705Z,65.14
2019-05-26T20:18:07.098Z,65.24
2019-05-26T20:19:07.717Z,65.50
2019-05-26T20:20:08.228Z,65.84
2019-05-26T20:21:08.641Z,65.77
2019-05-26T20:22:08.975Z,65.81
2019-05-26T20:23:09.686Z,66.06
2019-05-26T20:24:10.091Z,66.09
2019-05-26T20:25:10.460Z,66.24
2019-05-26T20:26:09.788Z,66.00
2019-05-26T20:27:11.125Z,66.17
2019-05-26T20:28:11.577Z,66.36
2019-05-26T20:29:12.065Z,66.75
2019-05-26T20:30:12.665Z,66.98
2019-05-26T20:31:13.042Z,67.88
2019-05-26T20:32:13.826Z,67.92
2019-05-26T20:33:14.749Z,67.41
2019-05-26T20:34:15.195Z,67.51
2019-05-26T20:35:15.709Z,67.48
2019-05-26T20:36:16.061Z,67.34
2019-05-26T20:37:16.338Z,67.56
2019-05-26T20:38:16.979Z,68.02
2019-05-26T20:39:17.415Z,68.33
2019-05-26T20:40:17.827Z,68.01
2019-05-26T20:41:18.363Z,68.19
2019-05-26T20:42:19.116Z,67.51
2019-05-26T20:43:19.550Z,68.07
2019-05-26T20:44:20.053Z,67.49
2019-05-26T20:45:20.361Z,67.26
2019-05-26T20:46:20.517Z,66.50
2019-05-26T20:47:20.873Z,66.79
2019-05-26T20:48:21.224Z,66.74
2019-05-26T20:49:20.624Z,66.84
2019-05-26T20:50:29.006Z,66.72
2019-05-26T20:51:21.460Z,67.42
2019-05-26T20:52:23.018Z,67.28
2019-05-26T20:53:23.851Z,67.37
2019-05-26T20:54:24.333Z,67.65
2019-05-26T20:54:34.416Z,67.77
2019-05-26T20:55:36.171Z,67.79
2019-05-26T20:56:37.058Z,68.22
2019-05-26T20:57:36.450Z,68.00
2019-05-26T20:58:37.770Z,67.91
2019-05-26T20:59:38.577Z,67.64
2019-05-26T21:00:38.446Z,67.55
2019-05-26T21:01:39.838Z,67.51
2019-05-26T21:02:39.110Z,67.33
2019-05-26T21:03:40.426Z,67.83
2019-05-26T21:04:41.174Z,67.62
2019-05-26T21:05:41.323Z,67.89
2019-05-26T21:06:41.850Z,68.50
2019-05-26T21:07:42.330Z,68.26
2019-05-26T21:08:42.843Z,68.54
2019-05-26T21:09:43.228Z,68.42
2019-05-26T21:10:43.577Z,68.32
2019-05-26T21:11:43.903Z,68.52
2019-05-26T21:12:44.443Z,68.00
2019-05-26T21:13:43.908Z,68.36
2019-05-26T21:14:45.267Z,67.75
2019-05-26T21:15:45.775Z,67.94
2019-05-26T21:16:46.495Z,68.33
2019-05-26T21:17:46.813Z,68.14
2019-05-26T21:18:47.206Z,67.57
2019-05-26T21:19:47.595Z,67.84
2019-05-26T21:20:48.370Z,67.74
2019-05-26T21:21:48.786Z,68.13
2019-05-26T21:22:49.276Z,68.48
2019-05-26T21:23:49.827Z,68.40
2019-05-26T21:24:50.328Z,68.37
2019-05-26T21:25:50.892Z,68.38
2019-05-26T21:26:50.458Z,68.36
2019-05-26T21:27:51.141Z,68.33
2019-05-26T21:28:52.866Z,68.15
2019-05-26T21:29:53.289Z,68.54
2019-05-26T21:30:53.685Z,68.36
2019-05-26T21:31:54.046Z,68.48
2019-05-26T21:32:54.811Z,69.10
2019-05-26T21:33:55.557Z,68.61
2019-05-26T21:34:55.179Z,68.34
2019-05-26T21:35:56.241Z,68.48
2019-05-26T21:36:55.863Z,68.66
2019-05-26T21:37:57.328Z,68.52
2019-05-26T21:38:57.831Z,68.58
2019-05-26T21:39:58.592Z,68.89
2019-05-26T21:40:59.231Z,69.09
2019-05-26T21:41:58.734Z,68.93
2019-05-26T21:43:00.311Z,69.06
2019-05-26T21:43:59.975Z,69.01
2019-05-26T21:45:01.512Z,69.18
2019-05-26T21:45:13.097Z,69.00
2019-05-26T21:46:16.988Z,68.89
2019-05-26T21:47:21.086Z,69.52
2019-05-26T21:48:14.583Z,69.51
2019-05-26T21:49:16.132Z,69.87
2019-05-26T21:50:16.333Z,70.06
2019-05-26T21:51:15.910Z,69.74
2019-05-26T21:52:16.260Z,69.77
2019-05-26T21:53:17.637Z,70.07
2019-05-26T21:54:18.510Z,70.03
2019-05-26T21:55:17.583Z,70.45
2019-05-26T21:56:19.634Z,70.48
2019-05-26T21:57:20.443Z,70.55
2019-05-26T21:58:21.075Z,70.72
2019-05-26T21:59:21.765Z,70.88
2019-05-26T22:00:21.441Z,71.00
2019-05-26T22:01:21.741Z,71.44
2019-05-26T22:02:21.823Z,71.75
2019-05-26T22:03:22.428Z,71.97
2019-05-26T22:04:23.127Z,71.93
2019-05-26T22:05:23.423Z,71.81
2019-05-26T22:06:24.087Z,71.56
2019-05-26T22:07:24.489Z,71.94
2019-05-26T22:08:25.480Z,71.65
2019-05-26T22:09:24.818Z,71.68
2019-05-26T22:10:25.601Z,72.26
2019-05-26T22:11:26.101Z,72.11
2019-05-26T22:12:26.132Z,72.34
2019-05-26T22:13:26.387Z,72.54
2019-05-26T22:14:26.714Z,72.56
2019-05-26T22:15:27.328Z,72.72
2019-05-26T22:16:27.341Z,72.50
2019-05-26T22:17:27.859Z,72.58
2019-05-26T22:18:28.247Z,72.93
2019-05-26T22:19:28.496Z,73.04
2019-05-26T22:20:28.923Z,73.12
2019-05-26T22:21:29.583Z,73.36
2019-05-26T22:22:29.941Z,73.36
2019-05-26T22:23:29.927Z,73.45
2019-05-26T22:24:30.463Z,73.51
2019-05-26T22:25:30.488Z,73.68
2019-05-26T22:26:31.667Z,73.52
2019-05-26T22:27:31.944Z,73.60
2019-05-26T22:28:32.352Z,73.58
2019-05-26T22:29:33.031Z,73.68
2019-05-26T22:30:33.039Z,73.77
2019-05-26T22:31:34.196Z,73.83
2019-05-26T22:32:34.745Z,74.04
2019-05-26T22:33:35.268Z,73.92
2019-05-26T22:34:35.472Z,73.92
2019-05-26T22:35:36.101Z,74.08
2019-05-26T22:36:36.534Z,74.03
2019-05-26T22:37:36.953Z,74.06
2019-05-26T22:38:37.801Z,74.16
2019-05-26T22:39:38.265Z,74.16
2019-05-26T22:40:38.783Z,74.03
2019-05-26T22:41:39.108Z,74.20
2019-05-26T22:42:39.326Z,74.12
2019-05-26T22:43:39.884Z,74.12
2019-05-26T22:44:40.178Z,74.18
2019-05-26T22:45:41.215Z,74.11
2019-05-26T22:46:41.313Z,74.19
2019-05-26T22:47:42.666Z,74.28
2019-05-26T22:48:43.139Z,74.25
2019-05-26T22:49:42.858Z,74.32
2019-05-26T22:50:43.378Z,74.59
2019-05-26T22:51:44.879Z,74.77
2019-05-26T22:52:44.652Z,74.82
2019-05-26T22:53:44.614Z,74.82
2019-05-26T22:54:45.128Z,75.02
2019-05-26T22:55:45.408Z,75.30
2019-05-26T22:56:46.125Z,74.95
2019-05-26T22:57:46.515Z,74.88
2019-05-26T22:58:47.097Z,75.22
2019-05-26T22:59:47.509Z,75.08
2019-05-26T23:00:48.353Z,74.87
2019-05-26T23:01:50.124Z,75.32
2019-05-26T23:02:49.225Z,74.97
2019-05-26T23:03:49.544Z,75.26
2019-05-26T23:04:50.175Z,75.21
2019-05-26T23:05:50.278Z,75.23
2019-05-26T23:06:51.028Z,75.44
2019-05-26T23:07:51.646Z,75.46
2019-05-26T23:08:51.771Z,75.69
2019-05-26T23:09:52.289Z,75.66
2019-05-26T23:10:53.193Z,75.81
2019-05-26T23:11:53.324Z,75.87
2019-05-26T23:12:53.565Z,75.80
2019-05-26T23:13:53.870Z,76.10
2019-05-26T23:14:54.472Z,76.12
2019-05-26T23:15:54.454Z,76.31
2019-05-26T23:16:54.577Z,76.19
2019-05-26T23:17:56.025Z,76.24
2019-05-26T23:18:55.579Z,76.24
2019-05-26T23:19:57.052Z,76.53
2019-05-26T23:20:57.277Z,76.70
2019-05-26T23:21:57.810Z,76.76
2019-05-26T23:22:57.322Z,76.54
2019-05-26T23:23:58.380Z,76.69
2019-05-26T23:24:57.877Z,76.83
2019-05-26T23:25:59.399Z,77.03
2019-05-26T23:27:00.078Z,76.78
2019-05-26T23:27:59.480Z,76.68
2019-05-26T23:29:00.894Z,76.65
2019-05-26T23:30:01.335Z,77.05
2019-05-26T23:31:00.782Z,76.91
2019-05-26T23:32:01.950Z,77.13
2019-05-26T23:33:01.552Z,77.41
2019-05-26T23:34:02.836Z,77.58
2019-05-26T23:34:14.901Z,77.65
2019-05-26T23:35:22.520Z,77.60
2019-05-26T23:36:16.861Z,77.63
2019-05-26T23:37:16.435Z,77.28
2019-05-26T23:38:17.817Z,77.24
2019-05-26T23:39:18.220Z,77.46
2019-05-26T23:40:18.625Z,77.91
2019-05-26T23:41:18.903Z,77.91
2019-05-26T23:42:19.243Z,77.99
2019-05-26T23:43:19.599Z,78.04
2019-05-26T23:44:20.246Z,78.41
2019-05-26T23:45:20.686Z,78.27
2019-05-26T23:46:21.121Z,78.74
2019-05-26T23:47:21.408Z,79.15
2019-05-26T23:48:21.798Z,79.80
2019-05-26T23:49:22.032Z,79.99
2019-05-26T23:50:22.576Z,79.74
2019-05-26T23:51:22.890Z,80.02
2019-05-26T23:52:23.269Z,79.81
2019-05-26T23:53:23.639Z,80.04
2019-05-26T23:54:24.099Z,80.16
2019-05-26T23:55:23.574Z,80.54
2019-05-26T23:56:24.871Z,80.25
2019-05-26T23:57:25.230Z,80.23
2019-05-26T23:58:25.976Z,80.09
2019-05-26T23:59:26.360Z,80.81
